Richmond, UT (84333)

5:34 AM MDT on September 17, 2014 (GMT -0600)
Richmond 1436A | Change Station
CLOSE
Current Station
Personal Weather Station
Location: Richmond, UT
Elevation: 4551 ft
Nearby Weather Stations

Elev 4551 ft 41.94 °N, 111.81 °W | Updated 4 minutes ago

Clear
Clear
55.3 °F
Feels Like 55.3 °F
N
0.0
Wind Variable Wind from NNE
Gusts 0.0 mph

Today
High -- | Low -- °F
--% Chance of Precip.
Yesterday
High -- | Low -- °F
Precip. -- in
7:09 AM 7:33 PM
Last Quarter, 37% visible
Pressure 29.83 in
Visibility 10.0 miles
Clouds Clear
Dew Point 43 °F
Humidity 63%
Rainfall 0.00 in
Snow Depth 0 in
UV 0 out of 12
Pollen 5.20 out of 12
Ozone Good
PM2.5 Good
Flu Activity Not available.
METAR KLGU 171051Z AUTO 00000KT 10SM CLR 12/08 A2998 RMK AO2 SLP100 T01170083

More Conditions Fewer Conditions

Pressure 29.83 in
Visibility 10.0 miles
Clouds Clear
Dew Point 43 °F
Humidity 63%
Rainfall 0.00 in
Snow Depth 0 in
UV 0 out of 12
Pollen 5.20 out of 12
Ozone Good
PM2.5 Good
Flu Activity Not available.
METAR KLGU 171051Z AUTO 00000KT 10SM CLR 12/08 A2998 RMK AO2 SLP100 T01170083

More Conditions Fewer Conditions

10-Day Weather Forecast

Almanac

Astronomy

Sep. 17, 2014 Rise Set
Actual Time 7:09 AM MDT 7:33 PM MDT
Civil Twilight 6:41 AM MDT 8:00 PM MDT
Nautical Twilight 6:08 AM MDT 8:33 PM MDT
Astronomical Twilight 5:34 AM MDT 9:07 PM MDT
Moon 1:08 AM MDT 3:49 PM MDT
Length of Visible Light 13h 19m
Length of Day
12h 23m
Tomorrow will be 2m 47s shorter.
Last Quarter, 37% of the Moon is Illuminated
Today
Last Quarter
Sep 24
New
Oct 1
First Quarter
Oct 8
Full
Oct 15
Last Quarter

Today's Extremes

State Highs State Lows

Community

WunderPhotos

Upload Photos

1,754,003 photos uploaded!

Nearby

Air Quality

  Air Quality AQ Index Pollutant
Yesterday Good
OZONE
Yesterday Good
PM2.5
Current Good
OZONE
Current Good
PM2.5

Snow Depth

Station Depth Elevation
Chalk Creek #1 1 in 9100 ft
Rock Creek 0 in 7900 ft
Black Flat-U.M. Creek 0 in 9400 ft
Clayton Springs 0 in 10000 ft
Camp Jackson 0 in 8600 ft

Earthquake Activity

City Distance Mag. Time & Date
No recent earthquake activity has been reported nearby.
Minimum magnitude displayed is 2.5.

Coastal Water Temperatures

Place Temperature
No Stations Reporting

Nearby Weather Stations